Time;durP1;ratioP1;P1;durP2;ratioP2;P2;SDS_P1;SDS_P2;PMS_P1;PMS_P2;Temp;Humidity;BMP_temperature;BMP_pressure;BME280_temperature;BME280_humidity;BME280_pressure;Samples;Min_cycle;Max_cycle;Signal;HPM_P1;HPM_P2
2022/12/10 00:02:11;;;;;;;96.77;20.03;;;;;;;;;;4938205;28;20045;-73
2022/12/10 00:04:36;;;;;;;98.03;19.50;;;;;;;;;;4938186;28;20038;-73
2022/12/10 00:07:02;;;;;;;100.30;19.10;;;;;;;;;;4937780;28;20035;-71
2022/12/10 00:09:30;;;;;;;101.50;19.97;;;;;;;;;;4935216;28;20389;-71
2022/12/10 00:11:55;;;;;;;93.23;17.57;;;;;;;;;;4936494;28;20563;-71
2022/12/10 00:14:21;;;;;;;104.90;22.40;;;;;;;;;;4929605;28;20035;-71
2022/12/10 00:16:47;;;;;;;97.07;17.30;;;;;;;;;;4938053;28;20030;-71
2022/12/10 00:19:12;;;;;;;93.20;17.80;;;;;;;;;;4937608;28;20469;-72
2022/12/10 00:21:38;;;;;;;105.70;18.23;;;;;;;;;;4938003;28;20129;-72
2022/12/10 00:24:05;;;;;;;107.17;18.27;;;;;;;;;;4955567;28;20049;-71
2022/12/10 00:26:35;;;;;;;86.00;17.87;;;;;;;;;;4974459;28;20050;-72
2022/12/10 00:29:01;;;;;;;99.10;19.60;;;;;;;;;;4941718;28;20038;-72
2022/12/10 00:31:28;;;;;;;90.40;18.83;;;;;;;;;;4941743;28;20504;-73
2022/12/10 00:33:54;;;;;;;100.83;19.30;;;;;;;;;;4942609;28;20566;-72
2022/12/10 00:36:26;;;;;;;92.27;18.87;;;;;;;;;;4974862;28;20031;-72
2022/12/10 00:38:52;;;;;;;82.23;17.70;;;;;;;;;;4941497;28;20055;-73
2022/12/10 00:41:18;;;;;;;95.43;19.90;;;;;;;;;;4956597;28;20039;-74
2022/12/10 00:43:44;;;;;;;94.43;18.40;;;;;;;;;;4957051;28;20536;-73
2022/12/10 00:46:10;;;;;;;94.33;18.70;;;;;;;;;;4941407;28;20504;-73
2022/12/10 00:48:36;;;;;;;93.53;18.37;;;;;;;;;;4941300;28;20030;-72
2022/12/10 00:51:02;;;;;;;90.97;20.50;;;;;;;;;;4940467;28;20093;-72
2022/12/10 00:53:28;;;;;;;92.03;20.37;;;;;;;;;;4957307;28;20046;-72
2022/12/10 00:55:54;;;;;;;106.80;18.87;;;;;;;;;;4958134;28;20034;-71
2022/12/10 00:58:22;;;;;;;103.27;20.17;;;;;;;;;;4974371;28;20070;-70
2022/12/10 01:00:48;;;;;;;108.73;19.17;;;;;;;;;;4941800;28;20066;-71
2022/12/10 01:03:14;;;;;;;105.77;20.70;;;;;;;;;;4941780;28;20368;-73
2022/12/10 01:05:40;;;;;;;100.07;20.93;;;;;;;;;;4942314;28;20038;-75
2022/12/10 01:08:05;;;;;;;123.73;20.07;;;;;;;;;;4957842;28;20485;-72
2022/12/10 01:10:31;;;;;;;101.10;21.87;;;;;;;;;;4941859;28;20125;-73
2022/12/10 01:12:57;;;;;;;119.20;22.80;;;;;;;;;;4957419;28;20136;-73
2022/12/10 01:15:24;;;;;;;110.80;21.93;;;;;;;;;;4956850;28;20031;-74
2022/12/10 01:17:50;;;;;;;113.37;21.43;;;;;;;;;;4940320;28;20496;-75
2022/12/10 01:20:15;;;;;;;94.00;21.07;;;;;;;;;;4940458;28;20035;-73
2022/12/10 01:22:41;;;;;;;108.50;20.43;;;;;;;;;;4939576;28;20134;-72
2022/12/10 01:25:07;;;;;;;92.70;20.57;;;;;;;;;;4940604;28;20035;-73
2022/12/10 01:27:32;;;;;;;115.63;24.90;;;;;;;;;;4940224;28;20465;-74
2022/12/10 01:29:58;;;;;;;117.93;24.47;;;;;;;;;;4956203;28;20027;-73
2022/12/10 01:32:23;;;;;;;108.90;21.77;;;;;;;;;;4939537;28;20189;-74
2022/12/10 01:34:49;;;;;;;112.40;20.17;;;;;;;;;;4971881;28;20379;-73
2022/12/10 01:37:15;;;;;;;102.60;21.87;;;;;;;;;;4940213;28;20046;-70
2022/12/10 01:39:42;;;;;;;90.37;20.60;;;;;;;;;;4939630;28;20051;-71
2022/12/10 01:42:12;;;;;;;106.37;23.00;;;;;;;;;;4939364;28;20045;-72
2022/12/10 01:44:40;;;;;;;104.97;21.03;;;;;;;;;;4954260;28;20412;-71
2022/12/10 01:47:06;;;;;;;111.50;23.13;;;;;;;;;;4955590;28;20042;-71
2022/12/10 01:49:37;;;;;;;104.83;21.87;;;;;;;;;;4954758;28;20358;-71
2022/12/10 01:52:04;;;;;;;105.22;21.30;;;;;;;;;;4971227;28;20046;-71
2022/12/10 01:54:33;;;;;;;99.07;21.60;;;;;;;;;;4955199;28;20045;-73
2022/12/10 01:57:00;;;;;;;94.40;21.47;;;;;;;;;;4939960;28;20519;-72
2022/12/10 01:59:27;;;;;;;90.97;20.53;;;;;;;;;;4955893;28;20477;-72
2022/12/10 02:01:58;;;;;;;112.03;22.63;;;;;;;;;;4939900;28;20038;-74
2022/12/10 02:04:46;;;;;;;105.50;21.13;;;;;;;;;;4954247;28;20472;-73
2022/12/10 02:07:44;;;;;;;104.03;23.83;;;;;;;;;;4939095;28;20500;-72
2022/12/10 02:10:29;;;;;;;85.03;19.53;;;;;;;;;;4919205;28;20057;-78
2022/12/10 02:13:04;;;;;;;87.43;19.17;;;;;;;;;;4957051;28;20521;-72
2022/12/10 02:15:31;;;;;;;99.33;20.90;;;;;;;;;;4940958;28;20105;-72
2022/12/10 02:18:00;;;;;;;93.03;21.67;;;;;;;;;;4956864;28;20038;-72
2022/12/10 02:20:30;;;;;;;86.57;19.80;;;;;;;;;;4929043;29;20052;-72
2022/12/10 02:23:07;;;;;;;71.45;19.38;;;;;;;;;;4934561;29;20063;-72
2022/12/10 02:25:48;;;;;;;80.93;19.40;;;;;;;;;;4902789;29;20046;-73
2022/12/10 02:28:33;;;;;;;73.28;18.98;;;;;;;;;;4934239;29;20389;-73
2022/12/10 02:31:00;;;;;;;103.60;22.63;;;;;;;;;;4902743;29;20067;-71
2022/12/10 02:33:27;;;;;;;92.73;24.43;;;;;;;;;;4949753;28;20381;-71
2022/12/10 02:35:53;;;;;;;112.00;26.23;;;;;;;;;;4934195;29;20494;-71
2022/12/10 02:38:24;;;;;;;118.30;25.47;;;;;;;;;;4933979;29;20498;-71
2022/12/10 02:40:52;;;;;;;102.50;26.42;;;;;;;;;;4949944;28;20043;-73
2022/12/10 02:43:19;;;;;;;96.40;22.43;;;;;;;;;;4918469;29;20441;-72
2022/12/10 02:45:46;;;;;;;113.70;23.10;;;;;;;;;;4933403;28;20031;-72
2022/12/10 02:48:13;;;;;;;90.47;22.53;;;;;;;;;;4940338;28;20055;-79
2022/12/10 02:50:41;;;;;;;102.77;21.80;;;;;;;;;;4956509;28;20038;-72
2022/12/10 02:53:07;;;;;;;93.07;22.50;;;;;;;;;;4940132;28;20043;-73
2022/12/10 02:55:52;;;;;;;106.33;22.33;;;;;;;;;;4940357;28;20500;-70
2022/12/10 02:58:19;;;;;;;104.43;22.00;;;;;;;;;;4940438;28;20042;-70
2022/12/10 03:00:51;;;;;;;100.70;21.77;;;;;;;;;;4940167;28;20485;-71
2022/12/10 03:03:22;;;;;;;110.90;22.77;;;;;;;;;;4956198;28;20045;-72
2022/12/10 03:05:55;;;;;;;89.83;21.30;;;;;;;;;;4956260;28;20039;-73
2022/12/10 03:08:22;;;;;;;102.47;22.37;;;;;;;;;;4940233;28;20035;-74
2022/12/10 03:10:51;;;;;;;103.70;22.67;;;;;;;;;;4972275;28;20039;-73
2022/12/10 03:13:18;;;;;;;102.97;22.10;;;;;;;;;;4939744;28;20046;-74
2022/12/10 03:15:44;;;;;;;99.63;20.80;;;;;;;;;;4940042;28;20429;-78
2022/12/10 03:18:11;;;;;;;95.10;20.33;;;;;;;;;;4940292;28;20046;-74
2022/12/10 03:20:39;;;;;;;112.57;22.47;;;;;;;;;;4955651;28;20046;-74
2022/12/10 03:23:07;;;;;;;107.33;22.70;;;;;;;;;;4955882;28;20054;-74
2022/12/10 03:25:34;;;;;;;106.13;23.23;;;;;;;;;;4940124;28;20038;-73
2022/12/10 03:28:00;;;;;;;101.17;21.77;;;;;;;;;;4972059;28;20049;-74
2022/12/10 03:30:28;;;;;;;101.30;23.27;;;;;;;;;;4939856;28;20046;-71
2022/12/10 03:32:54;;;;;;;94.17;24.17;;;;;;;;;;4939526;28;20388;-71
2022/12/10 03:35:22;;;;;;;99.00;23.73;;;;;;;;;;4939921;28;20122;-71
2022/12/10 03:37:49;;;;;;;101.87;22.70;;;;;;;;;;4939678;28;20050;-71
2022/12/10 03:40:15;;;;;;;107.83;22.30;;;;;;;;;;4955841;28;20042;-76
2022/12/10 03:42:41;;;;;;;136.27;27.57;;;;;;;;;;4956096;28;20042;-73
2022/12/10 03:45:07;;;;;;;111.37;23.63;;;;;;;;;;4955776;28;20031;-72
2022/12/10 03:47:33;;;;;;;109.27;23.57;;;;;;;;;;4939847;28;20413;-72
2022/12/10 03:49:58;;;;;;;114.13;23.57;;;;;;;;;;4939881;28;20138;-72
2022/12/10 03:52:25;;;;;;;131.77;25.37;;;;;;;;;;4939309;28;20066;-72
2022/12/10 03:54:50;;;;;;;125.20;26.97;;;;;;;;;;4939667;28;20057;-72
2022/12/10 03:57:16;;;;;;;117.03;24.90;;;;;;;;;;4940530;28;20042;-79
2022/12/10 03:59:41;;;;;;;121.67;25.17;;;;;;;;;;4943630;28;20034;-72
2022/12/10 04:02:07;;;;;;;116.77;24.80;;;;;;;;;;4942948;28;20039;-72
2022/12/10 04:04:33;;;;;;;112.70;21.77;;;;;;;;;;4959148;28;20129;-71
2022/12/10 04:06:58;;;;;;;97.77;21.80;;;;;;;;;;4942854;28;20038;-72
2022/12/10 04:09:25;;;;;;;105.53;21.20;;;;;;;;;;4958746;28;20093;-72
2022/12/10 04:11:54;;;;;;;125.23;23.97;;;;;;;;;;4942470;28;20027;-72
2022/12/10 04:17:04;;;;;;;113.20;21.70;;;;;;;;;;4958765;28;20043;-73
2022/12/10 04:19:30;;;;;;;117.20;22.07;;;;;;;;;;4958938;28;20528;-72
2022/12/10 04:27:25;;;;;;;118.80;21.17;;;;;;;;;;4974856;28;20536;-74
2022/12/10 04:29:52;;;;;;;117.03;22.80;;;;;;;;;;4942768;28;20105;-74
2022/12/10 04:32:19;;;;;;;113.97;23.97;;;;;;;;;;4958479;28;20046;-73
2022/12/10 04:34:45;;;;;;;124.73;23.30;;;;;;;;;;4943142;28;20061;-72
2022/12/10 04:37:11;;;;;;;109.83;22.20;;;;;;;;;;4942653;28;20469;-73
2022/12/10 04:39:37;;;;;;;125.93;23.03;;;;;;;;;;4958346;28;20493;-72
2022/12/10 04:42:03;;;;;;;125.00;22.13;;;;;;;;;;4942328;28;20034;-72
2022/12/10 04:44:29;;;;;;;114.50;21.43;;;;;;;;;;4942555;28;20100;-71
2022/12/10 04:46:55;;;;;;;110.97;21.60;;;;;;;;;;4945702;28;20043;-72
2022/12/10 04:49:21;;;;;;;126.60;21.47;;;;;;;;;;4923303;29;20079;-73
2022/12/10 04:51:47;;;;;;;122.57;21.10;;;;;;;;;;4936439;28;20074;-71
2022/12/10 04:54:13;;;;;;;121.10;22.83;;;;;;;;;;4958271;28;20517;-75
2022/12/10 04:56:38;;;;;;;115.00;21.77;;;;;;;;;;4973990;28;20501;-75
2022/12/10 04:59:04;;;;;;;117.47;21.30;;;;;;;;;;4941901;28;20081;-72
2022/12/10 05:01:30;;;;;;;112.00;21.77;;;;;;;;;;4941908;28;20082;-73
2022/12/10 05:04:00;;;;;;;127.73;22.17;;;;;;;;;;4958091;28;20038;-75
2022/12/10 05:06:29;;;;;;;118.65;22.73;;;;;;;;;;4958526;28;20131;-72
2022/12/10 05:08:58;;;;;;;;;;;;;;;;;;4963517;28;20133;-74
2022/12/10 05:11:34;;;;;;;96.97;19.43;;;;;;;;;;4971020;28;19894;-75
2022/12/10 05:14:00;;;;;;;113.23;20.67;;;;;;;;;;4959529;28;20482;-73
2022/12/10 05:16:27;;;;;;;127.40;22.73;;;;;;;;;;4975526;28;20045;-74
2022/12/10 05:18:53;;;;;;;104.47;20.73;;;;;;;;;;4942215;28;20042;-76
2022/12/10 05:21:19;;;;;;;126.83;22.40;;;;;;;;;;4973963;28;20056;-78
2022/12/10 05:23:47;;;;;;;116.63;22.00;;;;;;;;;;4942092;28;20545;-76
2022/12/10 05:26:14;;;;;;;117.33;22.37;;;;;;;;;;4941974;28;20166;-75
2022/12/10 05:28:45;;;;;;;119.70;21.73;;;;;;;;;;4958039;28;20045;-76
2022/12/10 05:31:24;;;;;;;117.73;23.00;;;;;;;;;;4957987;28;20046;-76
2022/12/10 05:33:51;;;;;;;125.23;22.23;;;;;;;;;;4973994;28;20072;-75
2022/12/10 05:36:21;;;;;;;102.50;21.43;;;;;;;;;;4958274;28;20133;-75
2022/12/10 05:38:50;;;;;;;129.77;24.23;;;;;;;;;;4973656;28;20062;-79
2022/12/10 05:41:22;;;;;;;119.80;22.67;;;;;;;;;;4955252;28;20039;-77
2022/12/10 05:43:49;;;;;;;114.07;21.77;;;;;;;;;;4939514;28;20070;-77
2022/12/10 05:46:19;;;;;;;129.40;23.57;;;;;;;;;;4970467;28;20043;-76
2022/12/10 05:48:44;;;;;;;117.23;22.57;;;;;;;;;;4955245;28;20046;-76
2022/12/10 05:51:13;;;;;;;115.47;22.90;;;;;;;;;;4938675;28;20050;-75
2022/12/10 05:53:42;;;;;;;125.50;22.50;;;;;;;;;;4940684;28;20053;-76
2022/12/10 05:56:09;;;;;;;119.13;22.47;;;;;;;;;;4973139;28;20122;-75
2022/12/10 05:58:39;;;;;;;111.68;23.23;;;;;;;;;;4957847;28;20034;-75
2022/12/10 06:01:07;;;;;;;127.63;23.57;;;;;;;;;;4941681;28;20038;-76
2022/12/10 06:03:38;;;;;;;120.57;22.23;;;;;;;;;;4974437;28;20074;-75
2022/12/10 06:06:04;;;;;;;119.20;22.90;;;;;;;;;;4927265;28;20166;-75
2022/12/10 06:08:30;;;;;;;121.37;23.10;;;;;;;;;;4943242;28;20481;-75
2022/12/10 06:10:57;;;;;;;132.87;24.40;;;;;;;;;;4941398;28;20035;-74
2022/12/10 06:13:23;;;;;;;117.67;23.40;;;;;;;;;;4941794;28;20053;-82
2022/12/10 06:15:49;;;;;;;129.87;23.70;;;;;;;;;;4941377;28;20039;-75
2022/12/10 06:18:17;;;;;;;137.03;26.23;;;;;;;;;;4941162;28;20041;-75
2022/12/10 06:20:43;;;;;;;127.20;24.70;;;;;;;;;;4940032;28;20393;-75
2022/12/10 06:23:10;;;;;;;146.73;24.60;;;;;;;;;;4941195;28;20035;-75
2022/12/10 06:25:38;;;;;;;135.43;24.67;;;;;;;;;;4940999;28;20342;-76
2022/12/10 06:28:03;;;;;;;148.03;25.33;;;;;;;;;;4940164;28;20035;-76
2022/12/10 06:30:29;;;;;;;128.70;25.07;;;;;;;;;;4971256;28;20061;-75
2022/12/10 06:32:55;;;;;;;153.33;29.53;;;;;;;;;;4938781;28;20417;-79
2022/12/10 06:35:21;;;;;;;140.67;25.27;;;;;;;;;;4939194;28;20137;-76
2022/12/10 06:37:46;;;;;;;166.50;31.50;;;;;;;;;;4939542;28;20054;-74
2022/12/10 06:40:12;;;;;;;149.83;25.40;;;;;;;;;;4940238;28;20030;-74
2022/12/10 06:42:38;;;;;;;150.53;24.47;;;;;;;;;;4956458;28;20507;-74
2022/12/10 06:45:04;;;;;;;144.33;26.80;;;;;;;;;;4940878;28;20062;-75
2022/12/10 06:47:30;;;;;;;148.93;27.20;;;;;;;;;;4956916;28;20038;-74
2022/12/10 06:49:56;;;;;;;160.00;27.00;;;;;;;;;;4940833;28;20027;-79
2022/12/10 06:52:21;;;;;;;137.97;26.83;;;;;;;;;;4940873;28;20049;-75
2022/12/10 06:54:47;;;;;;;138.30;27.60;;;;;;;;;;4940872;28;20097;-75
2022/12/10 06:57:12;;;;;;;154.57;27.20;;;;;;;;;;4940601;28;20035;-77
2022/12/10 06:59:38;;;;;;;138.83;25.07;;;;;;;;;;4940587;28;20046;-75
2022/12/10 07:02:04;;;;;;;159.03;26.37;;;;;;;;;;4940810;28;20039;-74
2022/12/10 07:04:29;;;;;;;150.27;27.57;;;;;;;;;;4956634;28;20054;-75
2022/12/10 07:06:55;;;;;;;157.50;28.23;;;;;;;;;;4940780;28;20027;-75
2022/12/10 07:09:21;;;;;;;162.60;29.87;;;;;;;;;;4940475;28;20100;-78
2022/12/10 07:11:46;;;;;;;156.70;28.13;;;;;;;;;;4940535;28;20035;-75
2022/12/10 07:14:14;;;;;;;166.90;28.33;;;;;;;;;;4940582;28;20102;-75
2022/12/10 07:16:39;;;;;;;150.97;28.20;;;;;;;;;;4940458;28;20034;-75
2022/12/10 07:19:05;;;;;;;157.33;27.43;;;;;;;;;;4956427;28;20420;-77
2022/12/10 07:21:34;;;;;;;146.30;25.83;;;;;;;;;;4940392;28;20373;-76
2022/12/10 07:24:01;;;;;;;151.20;26.27;;;;;;;;;;4940389;28;20038;-76
2022/12/10 07:26:28;;;;;;;158.93;27.53;;;;;;;;;;4956533;28;20039;-80
2022/12/10 07:28:54;;;;;;;163.50;26.73;;;;;;;;;;4940443;28;20145;-75
2022/12/10 07:31:21;;;;;;;161.47;29.17;;;;;;;;;;4972357;28;20129;-75
2022/12/10 07:33:47;;;;;;;175.97;29.97;;;;;;;;;;4943636;28;20039;-75
2022/12/10 07:36:14;;;;;;;157.27;28.50;;;;;;;;;;4960269;28;20026;-75
2022/12/10 07:38:40;;;;;;;168.13;29.60;;;;;;;;;;4944274;28;20101;-74
2022/12/10 07:41:08;;;;;;;170.13;27.93;;;;;;;;;;4944135;28;20041;-75
2022/12/10 07:43:34;;;;;;;169.63;29.20;;;;;;;;;;4944136;28;20062;-75
2022/12/10 07:46:07;;;;;;;173.83;29.93;;;;;;;;;;4976231;28;20089;-75
2022/12/10 07:48:34;;;;;;;163.43;28.70;;;;;;;;;;4944027;28;20045;-75
2022/12/10 07:50:59;;;;;;;173.53;27.87;;;;;;;;;;4943861;28;20027;-76
2022/12/10 07:53:25;;;;;;;193.23;30.23;;;;;;;;;;4943892;28;20046;-74
2022/12/10 07:55:50;;;;;;;192.40;31.07;;;;;;;;;;4943843;28;20033;-76
2022/12/10 07:58:16;;;;;;;173.43;29.70;;;;;;;;;;4943973;28;20420;-75
2022/12/10 08:00:42;;;;;;;170.90;30.00;;;;;;;;;;4943741;28;20096;-75
2022/12/10 08:03:08;;;;;;;176.57;29.57;;;;;;;;;;4943900;28;20038;-75
2022/12/10 08:05:34;;;;;;;186.13;30.30;;;;;;;;;;4943669;28;20042;-75
2022/12/10 08:08:00;;;;;;;193.73;31.60;;;;;;;;;;4943825;28;20038;-79
2022/12/10 08:10:25;;;;;;;192.33;30.67;;;;;;;;;;4943803;28;20035;-76
2022/12/10 08:12:51;;;;;;;201.30;32.60;;;;;;;;;;4943533;28;20404;-75
2022/12/10 08:15:16;;;;;;;209.33;32.23;;;;;;;;;;4943704;28;20037;-75
2022/12/10 08:17:42;;;;;;;213.23;35.07;;;;;;;;;;4943384;28;20073;-75
2022/12/10 08:20:08;;;;;;;199.70;32.63;;;;;;;;;;4943759;28;20495;-75
2022/12/10 08:22:35;;;;;;;194.97;32.60;;;;;;;;;;4943311;28;20537;-76
2022/12/10 08:25:01;;;;;;;193.10;32.23;;;;;;;;;;4943651;28;20034;-78
2022/12/10 08:27:28;;;;;;;208.33;33.97;;;;;;;;;;4959931;28;20086;-76
2022/12/10 08:29:54;;;;;;;208.33;34.67;;;;;;;;;;4959515;28;20465;-75
2022/12/10 08:32:22;;;;;;;204.83;36.77;;;;;;;;;;4943187;28;20370;-76
2022/12/10 08:34:50;;;;;;;207.77;34.23;;;;;;;;;;4959598;28;20035;-75
2022/12/10 08:37:15;;;;;;;207.57;33.73;;;;;;;;;;4943087;28;20046;-75
2022/12/10 08:39:41;;;;;;;221.57;39.50;;;;;;;;;;4943228;28;20522;-76
2022/12/10 08:42:09;;;;;;;204.77;34.83;;;;;;;;;;4943157;28;20125;-75
2022/12/10 08:44:35;;;;;;;201.47;34.57;;;;;;;;;;4941952;28;20027;-76
2022/12/10 08:47:00;;;;;;;202.57;36.27;;;;;;;;;;4943126;28;20065;-75
2022/12/10 08:49:26;;;;;;;216.00;33.20;;;;;;;;;;4942950;28;20121;-75
2022/12/10 08:51:52;;;;;;;217.13;33.60;;;;;;;;;;4942805;28;20045;-75
2022/12/10 08:54:17;;;;;;;199.73;32.70;;;;;;;;;;4942665;28;20046;-75
2022/12/10 08:56:43;;;;;;;203.33;32.60;;;;;;;;;;4933769;29;20110;-75
2022/12/10 08:59:09;;;;;;;191.47;35.00;;;;;;;;;;4927727;29;20043;-75
2022/12/10 09:01:35;;;;;;;199.00;31.07;;;;;;;;;;4920296;29;20101;-75
2022/12/10 09:04:08;;;;;;;206.17;32.80;;;;;;;;;;4918272;29;20875;-75
2022/12/10 09:06:33;;;;;;;186.60;30.37;;;;;;;;;;4918021;29;20260;-78
2022/12/10 09:09:00;;;;;;;204.30;29.40;;;;;;;;;;4918281;29;20146;-76
2022/12/10 09:11:29;;;;;;;209.87;29.60;;;;;;;;;;4934173;29;20149;-76
2022/12/10 09:13:55;;;;;;;195.10;31.50;;;;;;;;;;4918026;29;20524;-76
2022/12/10 09:16:21;;;;;;;209.63;30.07;;;;;;;;;;4902832;29;20042;-75
2022/12/10 09:18:47;;;;;;;212.10;32.70;;;;;;;;;;4920138;29;20463;-76
2022/12/10 09:21:14;;;;;;;215.50;31.77;;;;;;;;;;4920258;29;20114;-75
2022/12/10 09:23:40;;;;;;;198.57;30.57;;;;;;;;;;4920090;29;20533;-75
2022/12/10 09:26:06;;;;;;;209.73;32.00;;;;;;;;;;4920096;29;20035;-75
2022/12/10 09:28:32;;;;;;;212.33;31.23;;;;;;;;;;4920024;29;20099;-75
2022/12/10 09:30:59;;;;;;;210.20;30.53;;;;;;;;;;4920013;29;20032;-75
2022/12/10 09:33:26;;;;;;;213.00;30.07;;;;;;;;;;4919799;29;20351;-75
2022/12/10 09:35:51;;;;;;;257.97;38.77;;;;;;;;;;4919885;29;20502;-75
2022/12/10 09:38:17;;;;;;;212.73;33.80;;;;;;;;;;4919490;29;20062;-75
2022/12/10 09:41:03;;;;;;;211.33;33.20;;;;;;;;;;4904131;29;20035;-74
2022/12/10 09:43:35;;;;;;;212.27;31.07;;;;;;;;;;4919325;29;20407;-74
2022/12/10 09:46:11;;;;;;;216.13;32.37;;;;;;;;;;4920036;29;20039;-74
2022/12/10 09:49:01;;;;;;;212.77;33.20;;;;;;;;;;4919691;29;20050;-75
2022/12/10 09:51:29;;;;;;;197.50;31.03;;;;;;;;;;4919903;29;20054;-75
2022/12/10 09:53:59;;;;;;;195.60;32.67;;;;;;;;;;4921014;29;20075;-74
2022/12/10 09:56:36;;;;;;;218.00;35.03;;;;;;;;;;4937410;29;20494;-75
2022/12/10 09:59:11;;;;;;;206.03;33.30;;;;;;;;;;4920720;29;20050;-76
2022/12/10 10:01:37;;;;;;;205.50;32.50;;;;;;;;;;4935245;29;20039;-76
2022/12/10 10:04:04;;;;;;;231.80;33.97;;;;;;;;;;4919794;29;20036;-75
2022/12/10 10:06:30;;;;;;;222.50;33.53;;;;;;;;;;4919334;29;20497;-75
2022/12/10 10:08:57;;;;;;;213.53;32.63;;;;;;;;;;4903550;29;20035;-75
2022/12/10 10:11:27;;;;;;;198.27;31.87;;;;;;;;;;4919127;29;20035;-75
2022/12/10 10:13:54;;;;;;;215.87;31.97;;;;;;;;;;4918952;29;20051;-75
2022/12/10 10:16:27;;;;;;;204.67;32.47;;;;;;;;;;4919143;29;20130;-75
2022/12/10 10:18:52;;;;;;;201.10;32.30;;;;;;;;;;4918952;29;20090;-75
2022/12/10 10:21:27;;;;;;;216.63;34.90;;;;;;;;;;4919007;29;20126;-75
2022/12/10 10:23:55;;;;;;;208.53;32.43;;;;;;;;;;4918927;29;20035;-75
2022/12/10 10:26:23;;;;;;;192.87;32.57;;;;;;;;;;4918618;29;20035;-75
2022/12/10 10:29:04;;;;;;;203.93;37.33;;;;;;;;;;4934799;29;20475;-75
2022/12/10 10:31:30;;;;;;;207.43;35.50;;;;;;;;;;4934846;29;20043;-76
2022/12/10 10:33:59;;;;;;;204.70;34.40;;;;;;;;;;4918569;29;20044;-75
2022/12/10 10:36:26;;;;;;;217.33;35.37;;;;;;;;;;4934608;29;20113;-75
2022/12/10 10:38:51;;;;;;;224.50;35.73;;;;;;;;;;4918559;29;20071;-75
2022/12/10 10:41:17;;;;;;;198.60;34.23;;;;;;;;;;4918602;29;20039;-75
2022/12/10 10:43:50;;;;;;;192.17;34.30;;;;;;;;;;4902774;29;20040;-75
2022/12/10 10:46:20;;;;;;;200.23;34.57;;;;;;;;;;4918625;29;20035;-75
2022/12/10 10:48:48;;;;;;;217.60;36.33;;;;;;;;;;4902716;29;20534;-75
2022/12/10 10:51:15;;;;;;;205.30;34.57;;;;;;;;;;4918145;29;20187;-73
2022/12/10 10:53:45;;;;;;;220.03;36.77;;;;;;;;;;4918359;29;20154;-74
2022/12/10 10:56:17;;;;;;;220.97;37.10;;;;;;;;;;4934352;29;20043;-74
2022/12/10 10:58:49;;;;;;;209.60;36.87;;;;;;;;;;4918371;29;20039;-76
2022/12/10 11:01:16;;;;;;;243.93;38.10;;;;;;;;;;4934111;29;20503;-75
2022/12/10 11:03:46;;;;;;;248.80;41.23;;;;;;;;;;4918229;29;20500;-76
2022/12/10 11:06:12;;;;;;;247.35;39.75;;;;;;;;;;4917593;29;20087;-78
2022/12/10 11:08:39;;;;;;;270.40;41.13;;;;;;;;;;4917744;29;20043;-75
2022/12/10 11:11:10;;;;;;;240.27;41.83;;;;;;;;;;4933877;29;20058;-73
2022/12/10 11:13:36;;;;;;;232.65;38.13;;;;;;;;;;4918123;29;20086;-70
2022/12/10 11:16:14;;;;;;;243.10;41.63;;;;;;;;;;4933742;29;20044;-72
2022/12/10 11:18:42;;;;;;;240.60;39.73;;;;;;;;;;4918009;29;20450;-73
2022/12/10 11:21:14;;;;;;;193.27;35.73;;;;;;;;;;4917943;29;20031;-74
2022/12/10 11:23:40;;;;;;;191.27;34.33;;;;;;;;;;4902368;29;20051;-74
2022/12/10 11:26:09;;;;;;;192.77;36.53;;;;;;;;;;4917946;29;20111;-75
2022/12/10 11:28:35;;;;;;;173.10;34.13;;;;;;;;;;4917873;29;20087;-74
2022/12/10 11:31:03;;;;;;;190.07;34.63;;;;;;;;;;4917967;29;20040;-73
2022/12/10 11:33:44;;;;;;;171.03;33.77;;;;;;;;;;4933514;29;20490;-76
2022/12/10 11:36:21;;;;;;;160.90;33.77;;;;;;;;;;4917941;29;20035;-74
2022/12/10 11:38:52;;;;;;;166.70;33.07;;;;;;;;;;4934367;29;20066;-71
2022/12/10 11:41:18;;;;;;;167.90;35.30;;;;;;;;;;4917506;29;20048;-74
2022/12/10 11:44:06;;;;;;;150.60;33.60;;;;;;;;;;4917644;29;20036;-72
2022/12/10 11:46:38;;;;;;;140.93;33.83;;;;;;;;;;4916895;29;20846;-71
2022/12/10 11:49:14;;;;;;;156.43;34.77;;;;;;;;;;4917612;29;20078;-71
2022/12/10 11:51:46;;;;;;;154.33;34.47;;;;;;;;;;4933592;29;20051;-72
2022/12/10 11:54:30;;;;;;;152.67;34.93;;;;;;;;;;4902183;29;20059;-71
2022/12/10 11:57:02;;;;;;;170.40;36.57;;;;;;;;;;4917487;29;20043;-73
2022/12/10 11:59:57;;;;;;;150.53;33.43;;;;;;;;;;4933231;29;20086;-76
2022/12/10 12:02:23;;;;;;;144.00;32.73;;;;;;;;;;4913076;29;20126;-74
2022/12/10 12:04:57;;;;;;;141.70;34.07;;;;;;;;;;4917537;29;20459;-72
2022/12/10 12:07:39;;;;;;;146.27;33.50;;;;;;;;;;4933665;29;20048;-73
2022/12/10 12:10:18;;;;;;;150.30;34.83;;;;;;;;;;4917607;29;20040;-75
2022/12/10 12:13:03;;;;;;;140.33;31.47;;;;;;;;;;4917362;29;20052;-71
2022/12/10 12:15:34;;;;;;;136.60;33.10;;;;;;;;;;4917582;29;20470;-74
2022/12/10 12:18:13;;;;;;;145.77;33.67;;;;;;;;;;4917695;29;20497;-72
2022/12/10 12:20:43;;;;;;;141.63;33.17;;;;;;;;;;4937298;29;20039;-72
2022/12/10 12:23:37;;;;;;;133.77;32.70;;;;;;;;;;4920770;29;20039;-74
2022/12/10 12:26:06;;;;;;;146.50;32.90;;;;;;;;;;4928479;29;20075;-76
2022/12/10 12:28:55;;;;;;;137.40;32.93;;;;;;;;;;4920488;29;20039;-74
2022/12/10 12:31:24;;;;;;;139.37;34.50;;;;;;;;;;4917858;29;20414;-73
2022/12/10 12:33:49;;;;;;;152.87;35.80;;;;;;;;;;4920530;29;20086;-73
2022/12/10 12:36:24;;;;;;;155.73;34.23;;;;;;;;;;4920907;29;20075;-75
2022/12/10 12:39:02;;;;;;;152.37;34.13;;;;;;;;;;4920315;29;20059;-70
2022/12/10 12:41:40;;;;;;;148.80;32.57;;;;;;;;;;4920234;29;20397;-72
2022/12/10 12:44:21;;;;;;;126.10;31.33;;;;;;;;;;4920324;29;20063;-74
2022/12/10 12:46:47;;;;;;;133.23;33.35;;;;;;;;;;4920426;29;20565;-73
2022/12/10 12:49:25;;;;;;;145.17;32.80;;;;;;;;;;4920196;29;20054;-72
2022/12/10 12:52:09;;;;;;;120.90;31.20;;;;;;;;;;4919932;29;20031;-74
2022/12/10 12:54:36;;;;;;;124.13;31.87;;;;;;;;;;4953628;28;20053;-73
2022/12/10 12:57:11;;;;;;;121.77;33.50;;;;;;;;;;4941258;28;20365;-70
2022/12/10 12:59:52;;;;;;;131.17;31.23;;;;;;;;;;4937973;28;20149;-71
2022/12/10 13:02:23;;;;;;;124.88;31.75;;;;;;;;;;4937915;28;20039;-72
2022/12/10 13:05:10;;;;;;;120.47;30.63;;;;;;;;;;4930815;28;20424;-73
2022/12/10 13:07:36;;;;;;;124.10;30.70;;;;;;;;;;4938206;28;20054;-73
2022/12/10 13:10:05;;;;;;;118.63;30.13;;;;;;;;;;4942387;28;20038;-76
2022/12/10 13:12:32;;;;;;;121.87;29.60;;;;;;;;;;4941730;28;20122;-76
2022/12/10 13:14:58;;;;;;;109.13;28.33;;;;;;;;;;4968315;28;20074;-72
2022/12/10 13:17:24;;;;;;;99.23;28.07;;;;;;;;;;4957063;28;20062;-72
2022/12/10 13:19:51;;;;;;;101.17;28.00;;;;;;;;;;4940733;28;20038;-71
2022/12/10 13:22:37;;;;;;;103.80;29.07;;;;;;;;;;4936020;28;20041;-73
2022/12/10 13:25:06;;;;;;;107.90;26.83;;;;;;;;;;4929386;28;20453;-70
2022/12/10 13:27:33;;;;;;;104.57;28.87;;;;;;;;;;4940611;28;20501;-71
2022/12/10 13:30:02;;;;;;;95.83;27.10;;;;;;;;;;4973728;28;20386;-73
2022/12/10 13:32:31;;;;;;;91.73;26.03;;;;;;;;;;4973665;28;20549;-71
2022/12/10 13:35:09;;;;;;;100.73;30.17;;;;;;;;;;4956608;28;20062;-71
2022/12/10 13:37:52;;;;;;;84.80;25.90;;;;;;;;;;4935799;28;20039;-72
2022/12/10 13:40:21;;;;;;;90.60;26.77;;;;;;;;;;4956540;28;20126;-72
2022/12/10 13:45:40;;;;;;;88.10;24.80;;;;;;;;;;4955690;28;20035;-71
2022/12/10 13:48:16;;;;;;;83.60;25.40;;;;;;;;;;4941993;28;20042;-75
2022/12/10 13:50:53;;;;;;;88.83;24.97;;;;;;;;;;4942053;28;20065;-74
2022/12/10 13:53:28;;;;;;;87.33;25.27;;;;;;;;;;4941566;28;20050;-76
2022/12/10 13:56:09;;;;;;;86.63;25.23;;;;;;;;;;4941582;28;20037;-73
2022/12/10 13:58:35;;;;;;;86.30;24.10;;;;;;;;;;4941697;28;20452;-73
2022/12/10 14:01:05;;;;;;;77.20;24.47;;;;;;;;;;4941237;28;20074;-74
2022/12/10 14:03:34;;;;;;;75.72;24.13;;;;;;;;;;4950085;28;20062;-72
2022/12/10 14:06:10;;;;;;;77.07;23.37;;;;;;;;;;4920890;29;20505;-74
2022/12/10 14:08:38;;;;;;;66.37;22.17;;;;;;;;;;4921481;29;20102;-73
2022/12/10 14:11:05;;;;;;;76.73;22.03;;;;;;;;;;4922242;29;20054;-74
2022/12/10 14:13:46;;;;;;;69.53;22.20;;;;;;;;;;4952789;29;20046;-74
2022/12/10 14:16:14;;;;;;;68.43;21.65;;;;;;;;;;4937473;29;20062;-75
2022/12/10 14:18:51;;;;;;;66.47;22.37;;;;;;;;;;4921336;29;20043;-74
2022/12/10 14:21:18;;;;;;;58.60;20.30;;;;;;;;;;4955322;28;20382;-75
2022/12/10 14:23:47;;;;;;;64.23;21.00;;;;;;;;;;4972159;28;20117;-74
2022/12/10 14:26:14;;;;;;;63.37;20.93;;;;;;;;;;4941047;28;20476;-74
2022/12/10 14:28:45;;;;;;;63.27;21.93;;;;;;;;;;4940759;28;20038;-74